Time;durP1;ratioP1;P1;durP2;ratioP2;P2;SDS_P1;SDS_P2;PMS_P1;PMS_P2;Temp;Humidity;BMP_temperature;BMP_pressure;BME280_temperature;BME280_humidity;BME280_pressure;Samples;Min_cycle;Max_cycle;Signal;HPM_P1;HPM_P2
2023/06/21 00:02:09;;;;;;;4.50;4.00;;;26.00;96.70;;;;;;4928518;29;20047;-68
2023/06/21 00:04:38;;;;;;;6.78;3.90;;;25.90;96.70;;;;;;4922575;29;20051;-69
2023/06/21 00:07:07;;;;;;;5.80;4.03;;;25.90;96.70;;;;;;4923920;29;20158;-69
2023/06/21 00:09:36;;;;;;;6.15;3.65;;;25.90;96.70;;;;;;4918353;29;20419;-69
2023/06/21 00:12:05;;;;;;;5.13;3.80;;;25.80;96.70;;;;;;4928564;29;20127;-69
2023/06/21 00:14:33;;;;;;;5.95;3.28;;;25.80;96.70;;;;;;4919943;29;20044;-69
2023/06/21 00:17:01;;;;;;;4.55;3.35;;;25.80;96.70;;;;;;4920087;29;20410;-69
2023/06/21 00:19:29;;;;;;;9.35;4.20;;;25.90;96.70;;;;;;4925297;29;20044;-69
2023/06/21 00:22:21;;;;;;;6.32;3.75;;;25.80;96.70;;;;;;4924785;29;20043;-69
2023/06/21 00:25:07;;;;;;;4.85;3.55;;;25.80;96.70;;;;;;4921642;29;20036;-69
2023/06/21 00:27:36;;;;;;;6.32;3.60;;;25.80;96.70;;;;;;4922633;29;20057;-69
2023/06/21 00:30:05;;;;;;;7.43;4.30;;;25.70;96.70;;;;;;4926681;28;20620;-69
2023/06/21 00:32:33;;;;;;;5.00;3.75;;;25.60;96.70;;;;;;4930322;29;20051;-69
2023/06/21 00:35:02;;;;;;;4.93;3.67;;;25.50;96.70;;;;;;4925009;28;20047;-69
2023/06/21 00:37:30;;;;;;;7.45;3.92;;;25.60;96.70;;;;;;4912056;29;20060;-68
2023/06/21 00:39:58;;;;;;;6.28;3.97;;;25.60;96.70;;;;;;4919937;29;20051;-68
2023/06/21 00:42:30;;;;;;;4.75;3.45;;;25.50;96.70;;;;;;4907537;29;20134;-69
2023/06/21 00:45:00;;;;;;;7.22;4.20;;;25.40;96.70;;;;;;4930047;28;20079;-69
2023/06/21 00:47:37;;;;;;;5.95;3.97;;;25.40;96.70;;;;;;4924412;29;20122;-69
2023/06/21 00:50:07;;;;;;;4.65;4.03;;;25.40;96.70;;;;;;4927831;29;20154;-69
2023/06/21 00:52:37;;;;;;;5.40;4.00;;;25.20;96.70;;;;;;4913318;29;20052;-69
2023/06/21 00:55:08;;;;;;;5.53;3.95;;;25.20;96.70;;;;;;4927779;29;20047;-68
2023/06/21 00:57:44;;;;;;;4.15;3.53;;;25.30;96.70;;;;;;4930392;29;20083;-69
2023/06/21 01:00:20;;;;;;;6.35;3.78;;;25.30;96.70;;;;;;4934003;29;20043;-70
2023/06/21 01:02:49;;;;;;;10.35;4.30;;;25.20;96.70;;;;;;4920425;29;20047;-70
2023/06/21 01:05:19;;;;;;;9.25;3.60;;;25.10;96.70;;;;;;4914613;29;20099;-70
2023/06/21 01:08:00;;;;;;;6.15;3.42;;;25.20;96.70;;;;;;4922900;28;20052;-69
2023/06/21 01:10:48;;;;;;;6.70;4.20;;;25.20;96.70;;;;;;4926143;29;20519;-69
2023/06/21 01:13:31;;;;;;;4.53;3.53;;;25.30;96.70;;;;;;4931895;29;20051;-68
2023/06/21 01:16:05;;;;;;;5.55;3.65;;;25.20;96.70;;;;;;4906151;29;20055;-70
2023/06/21 01:18:34;;;;;;;6.18;4.20;;;25.20;96.70;;;;;;4918250;29;20049;-70
2023/06/21 01:21:05;;;;;;;7.32;3.88;;;25.00;96.70;;;;;;4930367;29;20418;-70
2023/06/21 01:23:51;;;;;;;7.15;3.55;;;25.00;96.70;;;;;;4915934;29;20107;-70
2023/06/21 01:26:54;;;;;;;4.15;3.55;;;24.90;96.70;;;;;;4928788;29;20091;-70
2023/06/21 01:29:27;;;;;;;4.03;2.95;;;24.90;96.70;;;;;;4927409;28;20043;-70
2023/06/21 01:31:58;;;;;;;5.20;3.08;;;24.90;96.70;;;;;;4916512;29;20073;-69
2023/06/21 01:34:28;;;;;;;5.68;3.75;;;24.90;96.70;;;;;;4930119;29;20051;-69
2023/06/21 01:36:58;;;;;;;6.10;3.88;;;24.90;96.70;;;;;;4910698;29;20044;-70
2023/06/21 01:39:27;;;;;;;7.47;4.03;;;24.90;96.70;;;;;;4936517;28;20046;-69
2023/06/21 01:41:55;;;;;;;7.10;3.80;;;25.00;96.70;;;;;;4928476;29;20044;-69
2023/06/21 01:44:26;;;;;;;6.20;3.70;;;25.00;96.70;;;;;;4921671;29;20055;-69
2023/06/21 01:46:55;;;;;;;7.13;3.75;;;25.00;96.70;;;;;;4928850;29;20596;-69
2023/06/21 01:49:25;;;;;;;5.88;3.80;;;24.90;96.70;;;;;;4930588;29;20094;-69
2023/06/21 01:51:54;;;;;;;5.43;3.58;;;24.80;96.70;;;;;;4934080;29;20039;-69
2023/06/21 01:54:25;;;;;;;6.20;3.30;;;24.80;96.70;;;;;;4916882;29;20040;-69
2023/06/21 01:57:01;;;;;;;5.75;3.58;;;24.70;96.70;;;;;;4914393;29;20410;-69
2023/06/21 01:59:31;;;;;;;6.40;3.40;;;24.80;96.70;;;;;;4924971;29;20091;-69
2023/06/21 02:02:03;;;;;;;5.53;3.60;;;24.80;96.70;;;;;;4931106;29;20564;-69
2023/06/21 02:04:38;;;;;;;;;;;24.70;96.70;;;;;;4914911;29;20061;-69
2023/06/21 02:07:08;;;;;;;4.38;3.85;;;24.50;96.70;;;;;;4935157;29;19926;-69
2023/06/21 02:09:37;;;;;;;7.70;3.63;;;24.60;96.70;;;;;;4932687;28;20040;-69
2023/06/21 02:12:07;;;;;;;5.25;3.85;;;24.50;96.70;;;;;;4929493;29;20714;-70
2023/06/21 02:14:39;;;;;;;7.43;3.75;;;24.60;96.70;;;;;;4903936;29;20050;-70
2023/06/21 02:17:08;;;;;;;8.48;3.53;;;24.70;96.70;;;;;;4926119;29;20046;-68
2023/06/21 02:19:39;;;;;;;4.78;3.40;;;24.80;96.70;;;;;;4935070;28;20054;-69
2023/06/21 02:22:08;;;;;;;5.90;3.78;;;24.90;96.70;;;;;;4929842;29;20044;-69
2023/06/21 02:24:36;;;;;;;5.85;3.55;;;24.80;96.70;;;;;;4923804;29;20510;-69
2023/06/21 02:27:05;;;;;;;5.72;4.10;;;24.80;96.70;;;;;;4933654;29;20062;-69
2023/06/21 02:29:33;;;;;;;4.72;3.47;;;24.70;96.70;;;;;;4933521;28;20044;-69
2023/06/21 02:32:03;;;;;;;4.20;3.30;;;24.70;96.70;;;;;;4931622;29;20134;-69
2023/06/21 02:34:31;;;;;;;4.95;4.10;;;24.70;96.70;;;;;;4933611;29;20056;-69
2023/06/21 02:36:59;;;;;;;4.80;3.42;;;24.70;96.70;;;;;;4921798;29;20051;-68
2023/06/21 02:39:28;;;;;;;5.40;3.80;;;24.70;96.70;;;;;;4933226;28;20130;-69
2023/06/21 02:41:59;;;;;;;5.05;3.13;;;24.80;96.70;;;;;;4938918;29;20058;-70
2023/06/21 02:44:27;;;;;;;5.20;3.65;;;24.80;96.70;;;;;;4933687;28;20043;-69
2023/06/21 02:46:56;;;;;;;5.32;3.85;;;24.70;96.70;;;;;;4934005;29;20624;-70
2023/06/21 02:49:26;;;;;;;5.55;3.78;;;24.60;96.70;;;;;;4907845;29;20523;-70
2023/06/21 02:51:53;;;;;;;4.40;3.75;;;24.70;96.70;;;;;;4936431;29;20429;-70
2023/06/21 02:54:22;;;;;;;7.00;3.83;;;24.70;96.70;;;;;;4911208;29;20058;-69
2023/06/21 02:56:49;;;;;;;4.20;3.80;;;24.60;96.70;;;;;;4928549;29;20050;-70
2023/06/21 02:59:17;;;;;;;4.15;3.75;;;24.50;96.70;;;;;;4866820;29;1493063;-70
2023/06/21 03:01:47;;;;;;;6.75;4.00;;;24.40;96.70;;;;;;4935066;29;21170;-69
2023/06/21 03:04:16;;;;;;;6.85;3.88;;;24.30;96.70;;;;;;4937346;28;20102;-69
2023/06/21 03:06:46;;;;;;;6.05;4.25;;;24.20;96.70;;;;;;4933302;29;20546;-69
2023/06/21 03:09:14;;;;;;;7.43;4.40;;;24.20;96.70;;;;;;4914675;29;20052;-69
2023/06/21 03:11:44;;;;;;;6.15;4.03;;;24.20;96.70;;;;;;4933156;29;20502;-69
2023/06/21 03:14:13;;;;;;;6.60;3.85;;;24.20;96.70;;;;;;4936664;29;20050;-69
2023/06/21 03:16:44;;;;;;;5.18;4.30;;;24.20;96.70;;;;;;4920065;29;20047;-69
2023/06/21 03:19:12;;;;;;;7.20;4.07;;;24.20;96.70;;;;;;4934988;28;20135;-69
2023/06/21 03:21:42;;;;;;;5.90;4.45;;;24.30;96.70;;;;;;4933479;29;20046;-70
2023/06/21 03:24:12;;;;;;;7.70;4.05;;;24.20;96.70;;;;;;4933643;28;20528;-70
2023/06/21 03:26:41;;;;;;;5.30;4.05;;;24.00;96.70;;;;;;4932330;29;20143;-69
2023/06/21 03:29:09;;;;;;;4.03;3.60;;;24.00;96.70;;;;;;4933086;29;21663;-69
2023/06/21 03:31:39;;;;;;;7.45;3.78;;;24.10;96.70;;;;;;4918934;29;20518;-69
2023/06/21 03:34:08;;;;;;;4.05;3.65;;;24.10;96.70;;;;;;4920434;28;20054;-69
2023/06/21 03:36:36;;;;;;;6.03;3.78;;;24.00;96.70;;;;;;4939451;29;20115;-69
2023/06/21 03:39:06;;;;;;;4.68;3.50;;;24.00;96.70;;;;;;4918029;29;20046;-69
2023/06/21 03:41:38;;;;;;;5.22;3.58;;;24.00;96.70;;;;;;4908112;29;20063;-70
2023/06/21 03:44:07;;;;;;;4.43;3.35;;;23.90;96.70;;;;;;4917304;29;20055;-69
2023/06/21 03:46:35;;;;;;;3.92;3.53;;;23.90;96.70;;;;;;4938151;29;20292;-69
2023/06/21 03:49:10;;;;;;;5.80;3.60;;;23.90;96.70;;;;;;4917040;28;20143;-69
2023/06/21 03:51:39;;;;;;;6.53;3.85;;;23.80;96.70;;;;;;4923680;29;20039;-69
2023/06/21 03:54:08;;;;;;;3.30;3.00;;;23.90;96.70;;;;;;4931735;29;20051;-69
2023/06/21 03:56:38;;;;;;;6.38;3.65;;;23.90;96.70;;;;;;4933063;29;20516;-68
2023/06/21 03:59:07;;;;;;;6.38;3.55;;;23.90;96.70;;;;;;4936112;28;20535;-69
2023/06/21 04:01:37;;;;;;;4.47;3.70;;;23.80;96.70;;;;;;4935073;29;20125;-70
2023/06/21 04:04:05;;;;;;;4.88;3.60;;;23.80;96.70;;;;;;4932168;28;20094;-70
2023/06/21 04:06:33;;;;;;;4.97;3.65;;;23.80;96.70;;;;;;4922179;29;20538;-69
2023/06/21 04:09:02;;;;;;;6.78;3.65;;;23.70;96.70;;;;;;4939532;28;20043;-70
2023/06/21 04:11:30;;;;;;;4.38;3.60;;;23.70;96.70;;;;;;4937293;29;20522;-70
2023/06/21 04:13:59;;;;;;;6.38;3.65;;;23.70;96.70;;;;;;4922442;28;20902;-70
2023/06/21 04:16:27;;;;;;;5.68;3.80;;;23.80;96.70;;;;;;4919929;29;20044;-68
2023/06/21 04:18:55;;;;;;;6.47;3.35;;;23.70;96.70;;;;;;4935160;29;20044;-68
2023/06/21 04:21:27;;;;;;;3.78;3.38;;;23.80;96.70;;;;;;4938226;29;20054;-69
2023/06/21 04:23:55;;;;;;;5.05;3.38;;;23.80;96.70;;;;;;4922797;29;20048;-69
2023/06/21 04:26:23;;;;;;;4.88;3.60;;;23.90;96.70;;;;;;4916778;29;20107;-69
2023/06/21 04:28:53;;;;;;;5.25;3.63;;;24.00;96.70;;;;;;4917408;29;20047;-69
2023/06/21 04:31:24;;;;;;;4.28;3.80;;;24.00;96.70;;;;;;4932418;29;20063;-69
2023/06/21 04:33:53;;;;;;;6.95;3.83;;;24.00;96.70;;;;;;4919144;29;20458;-69
2023/06/21 04:36:22;;;;;;;5.82;4.13;;;23.90;96.70;;;;;;4938830;29;20441;-69
2023/06/21 04:38:52;;;;;;;3.92;3.47;;;23.90;96.70;;;;;;4921287;29;20055;-69
2023/06/21 04:41:21;;;;;;;5.38;3.70;;;23.80;96.70;;;;;;4939352;28;20832;-69
2023/06/21 04:43:50;;;;;;;7.72;4.45;;;23.90;96.70;;;;;;4930594;29;20059;-69
2023/06/21 04:46:21;;;;;;;5.30;3.75;;;23.90;96.70;;;;;;4933255;29;20043;-69
2023/06/21 04:49:25;;;;;;;6.07;4.15;;;24.00;96.70;;;;;;4920662;29;20063;-69
2023/06/21 04:51:57;;;;;;;5.47;3.75;;;24.00;96.70;;;;;;4933225;29;20138;-69
2023/06/21 04:54:29;;;;;;;6.00;4.00;;;23.90;96.70;;;;;;4934204;29;20054;-69
2023/06/21 04:56:57;;;;;;;5.03;4.50;;;24.00;96.70;;;;;;4943334;29;20050;-69
2023/06/21 04:59:25;;;;;;;4.85;4.45;;;24.10;96.70;;;;;;4930909;28;20074;-70
2023/06/21 05:01:53;;;;;;;7.05;4.35;;;24.00;96.70;;;;;;4928351;29;20043;-69
2023/06/21 05:04:23;;;;;;;8.50;5.18;;;24.00;96.70;;;;;;4911084;29;20046;-69
2023/06/21 05:06:51;;;;;;;6.05;4.93;;;24.00;96.70;;;;;;4926391;29;20054;-69
2023/06/21 05:09:20;;;;;;;7.50;4.65;;;24.10;96.70;;;;;;4931336;28;20510;-69
2023/06/21 05:11:50;;;;;;;7.18;4.97;;;24.10;96.70;;;;;;4928389;29;20576;-70
2023/06/21 05:14:19;;;;;;;6.82;4.38;;;24.10;96.70;;;;;;4926969;28;20679;-69
2023/06/21 05:16:47;;;;;;;4.75;4.07;;;24.30;96.70;;;;;;4928430;29;20118;-69
2023/06/21 05:19:16;;;;;;;6.40;4.50;;;24.30;96.70;;;;;;4914046;29;20063;-69
2023/06/21 05:21:46;;;;;;;6.75;4.50;;;24.30;96.70;;;;;;4924305;29;20059;-69
2023/06/21 05:24:14;;;;;;;5.22;4.40;;;24.30;96.70;;;;;;4930654;29;20529;-70
2023/06/21 05:26:44;;;;;;;4.45;3.95;;;24.30;96.70;;;;;;4926545;29;20104;-69
2023/06/21 05:29:12;;;;;;;6.32;3.63;;;24.40;96.70;;;;;;4934113;28;20048;-70
2023/06/21 05:31:42;;;;;;;4.05;3.65;;;24.20;96.70;;;;;;4929732;29;20052;-69
2023/06/21 05:34:11;;;;;;;7.45;3.67;;;24.20;96.70;;;;;;4927998;28;20054;-69
2023/06/21 05:36:38;;;;;;;5.22;4.07;;;24.20;96.70;;;;;;4928175;29;20074;-73
2023/06/21 05:39:08;;;;;;;6.70;4.03;;;24.20;96.70;;;;;;4923957;29;20046;-70
2023/06/21 05:41:36;;;;;;;5.20;3.90;;;24.40;96.70;;;;;;4925667;29;20055;-70
2023/06/21 05:44:04;;;;;;;5.20;4.32;;;24.50;96.70;;;;;;4916696;29;20052;-70
2023/06/21 05:46:32;;;;;;;4.97;3.97;;;24.40;96.70;;;;;;4926185;29;20150;-70
2023/06/21 05:49:01;;;;;;;6.68;3.90;;;24.30;96.70;;;;;;4926589;29;20044;-70
2023/06/21 05:51:29;;;;;;;4.50;3.72;;;24.50;96.70;;;;;;4924363;29;20039;-69
2023/06/21 05:53:57;;;;;;;6.55;4.32;;;24.50;96.70;;;;;;4922548;29;20059;-69
2023/06/21 05:57:08;;;;;;;6.07;4.32;;;24.50;96.70;;;;;;4923466;29;20246;-71
2023/06/21 05:59:36;;;;;;;6.03;4.10;;;24.50;96.70;;;;;;4931152;29;20531;-72
2023/06/21 06:02:05;;;;;;;5.55;4.25;;;24.60;96.70;;;;;;4924816;29;20043;-69
2023/06/21 06:04:34;;;;;;;6.65;4.40;;;24.60;96.70;;;;;;4922826;29;20510;-69
2023/06/21 06:07:05;;;;;;;5.75;4.07;;;24.60;96.70;;;;;;4906513;29;20051;-69
2023/06/21 06:09:33;;;;;;;5.75;4.13;;;24.60;96.70;;;;;;4917306;29;20518;-70
2023/06/21 06:12:01;;;;;;;7.90;4.75;;;24.70;96.70;;;;;;4925580;29;20486;-69
2023/06/21 06:14:31;;;;;;;6.78;4.63;;;24.70;96.70;;;;;;4907142;29;20498;-69
2023/06/21 06:16:59;;;;;;;6.13;4.40;;;24.60;96.70;;;;;;4920792;29;20040;-69
2023/06/21 06:19:27;;;;;;;6.40;4.68;;;24.70;96.70;;;;;;4918830;29;20039;-69
2023/06/21 06:21:55;;;;;;;9.27;4.93;;;24.80;96.70;;;;;;4923796;29;20040;-69
2023/06/21 06:24:23;;;;;;;5.80;4.40;;;24.80;96.70;;;;;;4924939;29;20071;-69
2023/06/21 06:26:51;;;;;;;7.40;4.88;;;24.90;96.70;;;;;;4905441;29;20056;-69
2023/06/21 06:29:19;;;;;;;6.30;4.53;;;25.00;96.70;;;;;;4907363;29;20039;-69
2023/06/21 06:31:49;;;;;;;6.28;4.50;;;25.10;96.70;;;;;;4907731;29;20068;-69
2023/06/21 06:34:20;;;;;;;6.32;4.82;;;25.20;96.70;;;;;;4907602;29;20103;-69
2023/06/21 06:36:48;;;;;;;6.53;4.53;;;25.30;96.70;;;;;;4917045;29;20044;-69
2023/06/21 06:39:36;;;;;;;6.55;4.32;;;25.30;96.70;;;;;;4915564;29;20504;-71
2023/06/21 06:42:05;;;;;;;5.10;4.25;;;25.40;96.70;;;;;;4923517;29;20562;-70
2023/06/21 06:44:33;;;;;;;6.05;4.30;;;25.50;96.70;;;;;;4924518;29;20636;-70
2023/06/21 06:47:02;;;;;;;5.30;4.07;;;25.60;96.70;;;;;;4916455;29;20087;-70
2023/06/21 06:49:31;;;;;;;5.93;4.70;;;25.70;96.70;;;;;;4924919;29;20142;-69
2023/06/21 06:51:59;;;;;;;7.30;4.30;;;25.80;96.70;;;;;;4923377;29;20752;-70
2023/06/21 06:54:27;;;;;;;5.10;4.30;;;25.80;96.70;;;;;;4924866;29;20047;-70
2023/06/21 06:56:55;;;;;;;6.43;4.10;;;25.90;96.70;;;;;;4927490;29;20107;-70
2023/06/21 06:59:23;;;;;;;6.05;5.15;;;25.90;96.70;;;;;;4924462;29;20056;-69
2023/06/21 07:01:54;;;;;;;4.50;4.00;;;26.00;96.70;;;;;;4924944;29;20047;-72
2023/06/21 07:04:25;;;;;;;4.43;3.28;;;26.10;96.70;;;;;;4922654;29;20596;-73
2023/06/21 07:06:54;;;;;;;6.35;3.20;;;26.20;96.70;;;;;;4923928;29;20510;-73
2023/06/21 07:09:22;;;;;;;6.43;3.38;;;26.30;96.70;;;;;;4928241;29;20110;-71
2023/06/21 07:11:51;;;;;;;5.10;3.28;;;26.40;96.70;;;;;;4910703;29;20052;-71
2023/06/21 07:14:20;;;;;;;6.85;3.65;;;26.50;96.70;;;;;;4927555;29;20059;-71
2023/06/21 07:16:53;;;;;;;6.40;3.90;;;26.60;96.70;;;;;;4923674;29;20051;-70
2023/06/21 07:19:21;;;;;;;6.70;5.00;;;26.70;96.70;;;;;;4922998;29;20197;-71
2023/06/21 07:21:51;;;;;;;5.95;4.43;;;26.80;96.70;;;;;;4926189;29;20063;-70
2023/06/21 07:24:19;;;;;;;6.63;3.63;;;26.90;96.70;;;;;;4927601;29;20048;-70
2023/06/21 07:26:47;;;;;;;3.50;3.20;;;27.00;96.70;;;;;;4925271;29;20371;-70
2023/06/21 07:29:15;;;;;;;4.68;3.58;;;27.10;96.70;;;;;;4927157;29;20107;-70
2023/06/21 07:31:43;;;;;;;4.68;3.42;;;27.20;96.70;;;;;;4928644;29;20043;-70
2023/06/21 07:34:12;;;;;;;5.43;3.95;;;27.30;96.70;;;;;;4927443;29;20699;-70
2023/06/21 07:36:41;;;;;;;6.53;3.28;;;27.30;96.70;;;;;;4924862;29;20044;-70
2023/06/21 07:39:10;;;;;;;4.43;3.47;;;27.40;96.70;;;;;;4904612;29;20052;-70
2023/06/21 07:41:38;;;;;;;6.65;3.20;;;27.50;96.70;;;;;;4922100;29;20076;-70
2023/06/21 07:44:07;;;;;;;6.95;3.55;;;27.40;96.70;;;;;;4910233;29;20647;-70
2023/06/21 07:46:35;;;;;;;5.63;3.60;;;27.40;96.70;;;;;;4926318;29;20066;-70
2023/06/21 07:49:03;;;;;;;7.75;3.90;;;27.50;96.70;;;;;;4927385;29;20648;-70
2023/06/21 07:51:31;;;;;;;5.65;3.47;;;27.60;96.70;;;;;;4928241;29;20056;-70
2023/06/21 07:53:59;;;;;;;6.18;4.00;;;27.70;96.70;;;;;;4927894;29;20050;-70
2023/06/21 07:56:29;;;;;;;5.10;3.67;;;27.80;96.70;;;;;;4921725;29;20067;-70
2023/06/21 07:58:57;;;;;;;9.02;3.85;;;27.80;96.70;;;;;;4924384;29;20051;-70
2023/06/21 08:01:25;;;;;;;5.65;3.60;;;27.90;96.70;;;;;;4928279;29;20123;-70
2023/06/21 08:04:03;;;;;;;5.07;3.45;;;27.90;96.70;;;;;;4924113;29;20094;-70
2023/06/21 08:06:31;;;;;;;7.20;3.58;;;28.00;96.70;;;;;;4921294;29;20524;-71
2023/06/21 08:08:59;;;;;;;5.15;3.95;;;28.00;96.70;;;;;;4906842;29;20419;-70
2023/06/21 08:11:30;;;;;;;4.95;3.40;;;28.10;96.70;;;;;;4926489;29;20406;-70
2023/06/21 08:13:58;;;;;;;3.55;3.05;;;28.20;96.70;;;;;;4927112;29;20047;-70
2023/06/21 08:16:26;;;;;;;6.22;3.83;;;28.20;96.70;;;;;;4926751;29;20052;-70
2023/06/21 08:18:54;;;;;;;5.22;3.20;;;28.30;96.70;;;;;;4925444;29;20217;-70
2023/06/21 08:21:27;;;;;;;4.05;3.53;;;28.40;96.70;;;;;;4927604;29;20047;-70
2023/06/21 08:23:57;;;;;;;5.47;4.03;;;28.30;96.70;;;;;;4926059;29;20043;-69
2023/06/21 08:26:25;;;;;;;4.05;3.58;;;28.30;96.70;;;;;;4927010;29;20086;-69
2023/06/21 08:28:54;;;;;;;5.38;3.67;;;28.40;96.70;;;;;;4926636;29;20052;-69
2023/06/21 08:31:22;;;;;;;4.78;4.28;;;28.40;96.70;;;;;;4925914;29;20043;-69
2023/06/21 08:33:51;;;;;;;4.47;3.85;;;28.40;96.70;;;;;;4925301;29;21119;-69
2023/06/21 08:36:19;;;;;;;5.72;4.00;;;28.50;96.70;;;;;;4926793;29;20071;-69
2023/06/21 08:38:47;;;;;;;4.78;3.30;;;28.60;96.70;;;;;;4926657;29;20058;-69
2023/06/21 08:41:16;;;;;;;4.72;3.50;;;28.60;96.70;;;;;;4921394;29;20565;-69
2023/06/21 08:43:44;;;;;;;7.63;3.85;;;28.60;96.70;;;;;;4925988;29;20044;-69
2023/06/21 08:46:15;;;;;;;4.63;3.85;;;28.60;96.70;;;;;;4926633;29;20048;-69
2023/06/21 08:48:46;;;;;;;4.07;3.40;;;28.70;96.70;;;;;;4908960;29;20063;-69
2023/06/21 08:51:15;;;;;;;5.00;3.97;;;28.80;96.70;;;;;;4919001;29;20044;-69
2023/06/21 08:53:49;;;;;;;4.93;3.67;;;28.80;96.70;;;;;;4908701;29;20051;-69
2023/06/21 08:56:21;;;;;;;6.43;4.00;;;28.90;96.70;;;;;;4921374;29;20047;-69
2023/06/21 08:58:57;;;;;;;4.35;3.33;;;28.90;96.70;;;;;;4924174;29;20075;-69
2023/06/21 09:01:32;;;;;;;3.92;3.08;;;29.00;96.70;;;;;;4924099;29;20451;-69
2023/06/21 09:04:04;;;;;;;4.57;3.73;;;29.00;96.70;;;;;;4925645;29;20054;-69
2023/06/21 09:06:33;;;;;;;4.18;3.40;;;29.10;96.70;;;;;;4922576;29;20398;-69
2023/06/21 09:09:01;;;;;;;6.35;3.50;;;29.10;96.70;;;;;;4926321;29;20442;-69
2023/06/21 09:11:32;;;;;;;5.03;3.70;;;29.10;96.70;;;;;;4924245;29;20048;-70
2023/06/21 09:14:00;;;;;;;6.03;3.28;;;29.00;96.70;;;;;;4917868;29;20680;-69
2023/06/21 09:16:30;;;;;;;3.60;3.13;;;29.10;96.70;;;;;;4908503;29;20572;-69
2023/06/21 09:18:59;;;;;;;4.45;3.55;;;29.20;96.70;;;;;;4924122;29;20438;-69
2023/06/21 09:21:28;;;;;;;3.72;3.20;;;29.20;96.70;;;;;;4924270;29;20056;-69
2023/06/21 09:23:56;;;;;;;4.03;3.28;;;29.20;96.70;;;;;;4907811;29;20047;-69
2023/06/21 09:26:24;;;;;;;6.53;3.85;;;29.20;96.70;;;;;;4908276;29;20044;-70
2023/06/21 09:28:52;;;;;;;6.30;3.40;;;29.30;96.70;;;;;;4923495;29;20151;-70
2023/06/21 09:31:20;;;;;;;5.22;3.63;;;29.30;96.70;;;;;;4924109;29;20039;-70
2023/06/21 09:33:51;;;;;;;5.28;3.28;;;29.30;96.70;;;;;;4925151;29;20126;-69
2023/06/21 09:36:20;;;;;;;5.00;3.15;;;29.40;96.70;;;;;;4924701;29;20051;-69
2023/06/21 09:38:48;;;;;;;7.10;3.30;;;29.50;96.70;;;;;;4923300;29;20573;-70
2023/06/21 09:41:19;;;;;;;4.75;3.15;;;29.70;96.70;;;;;;4926355;29;20056;-70
2023/06/21 09:43:49;;;;;;;4.57;3.65;;;29.80;96.70;;;;;;4926667;29;20043;-70
2023/06/21 09:46:17;;;;;;;3.75;3.10;;;29.90;96.70;;;;;;4923224;29;20122;-70
2023/06/21 09:48:45;;;;;;;4.93;3.75;;;29.80;96.70;;;;;;4920648;29;20119;-70
2023/06/21 09:51:22;;;;;;;4.78;2.70;;;29.90;96.70;;;;;;4921544;29;20486;-70
2023/06/21 09:53:51;;;;;;;3.13;2.83;;;29.80;96.70;;;;;;4919674;29;20525;-70
2023/06/21 09:56:19;;;;;;;5.65;3.40;;;29.80;96.70;;;;;;4921913;29;20051;-70
2023/06/21 09:58:50;;;;;;;3.00;2.72;;;29.90;96.70;;;;;;4916690;29;20422;-70
2023/06/21 10:01:19;;;;;;;3.85;3.03;;;29.80;96.70;;;;;;4908239;29;20489;-69
2023/06/21 10:03:48;;;;;;;3.78;2.90;;;29.80;96.70;;;;;;4923201;29;20562;-70
2023/06/21 10:06:28;;;;;;;4.35;3.15;;;29.90;96.70;;;;;;4908889;29;20073;-71
2023/06/21 10:08:56;;;;;;;4.72;2.80;;;30.20;96.70;;;;;;4920592;29;20507;-70
2023/06/21 10:11:26;;;;;;;7.75;3.53;;;30.30;96.70;;;;;;4912851;29;20048;-70
2023/06/21 10:13:55;;;;;;;4.88;3.03;;;30.30;96.70;;;;;;4921826;29;20107;-70
2023/06/21 10:16:23;;;;;;;3.47;3.17;;;30.30;96.70;;;;;;4921918;29;20063;-70
2023/06/21 10:18:56;;;;;;;4.40;3.03;;;30.40;96.70;;;;;;4919385;29;20566;-70
2023/06/21 10:21:28;;;;;;;5.53;2.83;;;30.40;96.70;;;;;;4925050;29;20051;-70
2023/06/21 10:23:57;;;;;;;3.97;2.85;;;30.20;96.70;;;;;;4923360;29;20738;-70
2023/06/21 10:26:28;;;;;;;3.00;2.58;;;30.20;96.70;;;;;;4923657;29;20411;-70
2023/06/21 10:28:58;;;;;;;5.55;2.83;;;30.20;96.70;;;;;;4925596;29;20043;-70
2023/06/21 10:31:30;;;;;;;4.35;2.90;;;30.30;96.70;;;;;;4924307;29;20054;-70
2023/06/21 10:34:04;;;;;;;6.70;3.22;;;30.60;96.70;;;;;;4925123;29;20057;-70
2023/06/21 10:36:37;;;;;;;4.20;3.13;;;30.70;96.70;;;;;;4917139;29;20052;-70
2023/06/21 10:39:09;;;;;;;4.72;3.25;;;30.90;96.70;;;;;;4921653;29;20044;-70
2023/06/21 10:41:39;;;;;;;3.60;3.30;;;31.30;96.70;;;;;;4921269;29;20099;-69
2023/06/21 10:44:09;;;;;;;4.13;3.10;;;31.40;96.70;;;;;;4927306;29;20048;-70
2023/06/21 10:46:41;;;;;;;4.43;3.35;;;31.60;96.70;;;;;;4922980;29;20123;-70
2023/06/21 10:49:10;;;;;;;5.18;2.80;;;31.80;96.70;;;;;;4917173;29;20513;-70
2023/06/21 10:51:42;;;;;;;4.32;3.20;;;32.00;96.70;;;;;;4930455;29;20059;-70
2023/06/21 10:54:11;;;;;;;4.50;3.30;;;32.10;96.70;;;;;;4924754;28;20502;-70
2023/06/21 10:56:40;;;;;;;4.20;3.05;;;32.20;96.70;;;;;;4908514;29;20080;-70
2023/06/21 10:59:12;;;;;;;4.03;2.78;;;32.30;96.70;;;;;;4908538;29;20051;-71
2023/06/21 11:01:42;;;;;;;4.22;3.08;;;32.40;96.70;;;;;;4924681;29;20462;-71
2023/06/21 11:04:10;;;;;;;4.97;2.90;;;32.60;96.70;;;;;;4926536;29;20130;-71
2023/06/21 11:06:43;;;;;;;3.78;3.05;;;32.70;96.70;;;;;;4928831;29;20046;-71
2023/06/21 11:09:16;;;;;;;4.95;3.30;;;32.80;96.70;;;;;;4927266;29;20449;-71
2023/06/21 11:11:52;;;;;;;6.30;3.40;;;32.90;96.70;;;;;;4924701;29;20059;-71
2023/06/21 11:14:22;;;;;;;4.65;3.03;;;32.80;96.70;;;;;;4926543;29;20423;-71
2023/06/21 11:17:06;;;;;;;4.07;2.80;;;32.70;96.70;;;;;;4927903;29;20130;-73
2023/06/21 11:19:37;;;;;;;5.85;3.42;;;32.70;96.70;;;;;;4929901;29;20130;-70
2023/06/21 11:22:16;;;;;;;3.38;2.88;;;32.90;96.70;;;;;;4917719;29;20529;-72
2023/06/21 11:24:57;;;;;;;4.93;3.53;;;32.90;96.70;;;;;;4926502;29;20075;-71
2023/06/21 11:27:26;;;;;;;4.72;2.80;;;33.10;96.70;;;;;;4909822;29;20055;-71
2023/06/21 11:29:59;;;;;;;3.85;3.00;;;33.10;96.70;;;;;;4925861;29;20040;-71
2023/06/21 11:32:29;;;;;;;3.17;2.85;;;33.20;96.70;;;;;;4924833;29;20138;-72
2023/06/21 11:34:58;;;;;;;3.60;3.30;;;33.40;96.70;;;;;;4925792;29;20048;-71
2023/06/21 11:37:36;;;;;;;4.82;3.15;;;33.50;96.70;;;;;;4926544;29;20098;-71
2023/06/21 11:40:06;;;;;;;4.10;3.30;;;33.40;96.70;;;;;;4926865;29;20502;-74
2023/06/21 11:42:35;;;;;;;4.40;3.35;;;33.40;96.70;;;;;;4930264;29;20553;-74
2023/06/21 11:45:17;;;;;;;4.63;3.33;;;33.20;96.70;;;;;;4912288;29;20086;-74
2023/06/21 11:48:06;;;;;;;3.90;2.92;;;33.40;96.70;;;;;;4930599;29;20039;-74
2023/06/21 11:50:36;;;;;;;5.30;3.17;;;33.50;96.70;;;;;;4915192;29;20889;-75
2023/06/21 11:53:23;;;;;;;4.57;2.85;;;33.80;96.70;;;;;;4927715;29;20079;-74
2023/06/21 11:55:52;;;;;;;4.88;3.42;;;34.00;96.70;;;;;;4926924;29;20813;-74
2023/06/21 11:58:21;;;;;;;6.68;3.15;;;33.90;96.70;;;;;;4926137;29;20059;-75
2023/06/21 12:00:49;;;;;;;5.75;3.42;;;33.90;96.70;;;;;;4924766;29;20047;-73
2023/06/21 12:03:18;;;;;;;4.85;2.60;;;33.80;96.70;;;;;;4934466;29;20042;-71
2023/06/21 12:05:48;;;;;;;5.88;2.85;;;33.70;96.70;;;;;;4925598;29;20047;-71
2023/06/21 12:08:18;;;;;;;4.22;3.13;;;33.80;96.70;;;;;;4924655;29;20524;-71
2023/06/21 12:10:48;;;;;;;4.50;2.60;;;33.70;96.70;;;;;;4922826;29;20071;-72
2023/06/21 12:13:18;;;;;;;3.50;2.92;;;33.60;96.70;;;;;;4925728;29;20047;-70
2023/06/21 12:15:50;;;;;;;3.90;2.90;;;33.80;96.70;;;;;;4926678;29;20054;-70
2023/06/21 12:18:19;;;;;;;4.40;2.80;;;34.10;96.70;;;;;;4925015;29;20514;-70
2023/06/21 12:20:48;;;;;;;3.45;2.80;;;34.40;96.70;;;;;;4932715;29;20048;-69
2023/06/21 12:23:20;;;;;;;6.70;3.00;;;34.60;96.70;;;;;;4919124;29;20141;-71
2023/06/21 12:25:50;;;;;;;6.85;3.10;;;34.80;96.70;;;;;;4924854;29;20044;-70
2023/06/21 12:28:20;;;;;;;4.53;3.08;;;34.90;96.70;;;;;;4923958;29;20035;-70
2023/06/21 12:30:49;;;;;;;4.18;3.05;;;34.90;96.70;;;;;;4924036;29;20059;-71
2023/06/21 12:33:18;;;;;;;3.92;3.30;;;35.00;96.70;;;;;;4923165;29;20442;-69
2023/06/21 12:35:46;;;;;;;6.18;3.30;;;35.20;96.70;;;;;;4925821;29;20054;-69
2023/06/21 12:38:14;;;;;;;4.85;3.13;;;35.20;96.70;;;;;;4918309;29;20050;-69
2023/06/21 12:40:56;;;;;;;3.95;3.05;;;34.90;96.70;;;;;;4919583;29;20052;-69
2023/06/21 12:43:41;;;;;;;4.63;3.08;;;34.70;96.70;;;;;;4925283;29;20509;-71
2023/06/21 12:46:10;;;;;;;4.30;3.25;;;34.90;96.70;;;;;;4901899;29;20056;-69
2023/06/21 12:48:43;;;;;;;4.30;3.10;;;34.90;96.30;;;;;;4924016;29;20044;-70
2023/06/21 12:51:19;;;;;;;3.78;3.22;;;35.10;96.30;;;;;;4915199;29;20039;-71
2023/06/21 12:53:47;;;;;;;2.75;2.55;;;35.10;96.20;;;;;;4919556;29;20056;-70
2023/06/21 12:56:16;;;;;;;5.38;3.03;;;35.20;95.50;;;;;;4917268;29;20055;-70
2023/06/21 12:58:44;;;;;;;4.38;3.05;;;35.40;96.70;;;;;;4913141;29;20198;-70
2023/06/21 13:01:15;;;;;;;4.88;2.65;;;35.60;96.70;;;;;;4912107;29;20046;-69
2023/06/21 13:03:43;;;;;;;8.38;3.20;;;35.70;96.70;;;;;;4900492;29;20074;-70
2023/06/21 13:06:11;;;;;;;3.20;2.65;;;35.90;96.70;;;;;;4910193;29;20534;-69